Time;durP1;ratioP1;P1;durP2;ratioP2;P2;SDS_P1;SDS_P2;PMS_P1;PMS_P2;Temp;Humidity;BMP_temperature;BMP_pressure;BME280_temperature;BME280_humidity;BME280_pressure;Samples;Min_cycle;Max_cycle;Signal;HPM_P1;HPM_P2
2023/06/08 00:02:45;;;;;;;13.82;4.90;;;;;;;14.07;81.94;102137.97;20856942;28;20087;-62
2023/06/08 00:13:07;;;;;;;19.65;5.80;;;;;;;14.02;82.08;102137.22;20855796;28;20049;-62
2023/06/08 00:23:28;;;;;;;;;;;;;;;14.02;82.15;102132.00;20870035;28;20045;-63
2023/06/08 00:33:50;;;;;;;16.63;6.53;;;;;;;14.03;81.71;102138.91;20871575;28;19928;-62
2023/06/08 00:44:12;;;;;;;16.70;7.20;;;;;;;13.97;82.27;102131.28;20860557;28;20056;-63
2023/06/08 00:54:34;;;;;;;;;;;;;;;13.91;82.70;102129.66;20873857;28;20041;-62
2023/06/08 01:04:56;;;;;;;12.98;5.80;;;;;;;13.93;82.21;102135.69;20858857;28;19932;-62
2023/06/08 01:15:33;;;;;;;17.27;6.22;;;;;;;13.98;82.10;102138.19;20859537;28;20358;-62
2023/06/08 01:25:56;;;;;;;16.45;5.50;;;;;;;13.94;82.08;102137.41;20864277;28;20038;-62
2023/06/08 01:36:33;;;;;;;18.38;5.65;;;;;;;13.86;82.25;102136.69;20842296;28;20079;-62
2023/06/08 01:46:58;;;;;;;18.17;6.75;;;;;;;13.76;81.68;102134.34;20846228;28;20060;-63
2023/06/08 01:57:20;;;;;;;17.73;7.18;;;;;;;13.79;82.35;102126.50;20851441;28;20041;-63
2023/06/08 02:07:42;;;;;;;20.17;8.68;;;;;;;13.71;82.71;102131.00;20846469;28;20055;-62
2023/06/08 02:18:05;;;;;;;17.98;7.50;;;;;;;13.71;82.76;102118.00;20854730;28;20137;-62
2023/06/08 02:28:27;;;;;;;21.40;7.00;;;;;;;13.61;82.91;102125.13;20846341;28;20049;-62
2023/06/08 02:38:49;;;;;;;24.67;7.18;;;;;;;13.54;82.54;102120.09;20850302;28;20381;-63
2023/06/08 02:49:11;;;;;;;14.93;6.32;;;;;;;13.52;82.86;102114.06;20843981;28;20060;-62
2023/06/08 02:59:33;;;;;;;16.77;5.72;;;;;;;13.49;83.12;102116.75;20848885;28;20037;-62
2023/06/08 03:09:54;;;;;;;;;;;;;;;13.49;83.42;102107.19;20850584;28;20041;-62
2023/06/08 03:20:17;;;;;;;14.63;5.20;;;;;;;13.52;83.60;102101.06;20835006;28;20007;-62
2023/06/08 03:30:38;;;;;;;20.15;5.50;;;;;;;13.44;83.72;102092.59;20853820;28;20041;-62
2023/06/08 03:41:00;;;;;;;17.60;5.72;;;;;;;13.51;82.95;102104.56;20867327;28;20068;-62
2023/06/08 03:51:22;;;;;;;12.50;5.20;;;;;;;13.43;83.12;102101.25;20870703;28;20500;-62
2023/06/08 04:01:45;;;;;;;16.45;5.55;;;;;;;13.52;83.60;102095.84;20845744;28;20052;-62
2023/06/08 04:12:07;;;;;;;17.63;5.20;;;;;;;13.54;83.55;102088.88;20852273;28;20045;-62
2023/06/08 04:22:28;;;;;;;14.85;5.22;;;;;;;13.55;83.83;102085.41;20882731;28;20055;-62
2023/06/08 04:32:50;;;;;;;15.13;5.57;;;;;;;13.53;83.46;102080.25;20868736;28;20490;-62
2023/06/08 04:43:13;;;;;;;13.95;5.78;;;;;;;13.53;83.15;102076.78;20861661;28;20054;-62
2023/06/08 04:53:35;;;;;;;15.57;5.97;;;;;;;13.63;83.71;102068.72;20860446;28;20598;-62
2023/06/08 05:03:57;;;;;;;17.20;6.13;;;;;;;13.72;83.84;102062.44;20855056;28;20053;-63
2023/06/08 05:14:18;;;;;;;16.95;6.00;;;;;;;13.74;81.88;102071.06;20833019;28;20073;-61
2023/06/08 05:24:40;;;;;;;;;;;;;;;13.77;84.12;102071.03;20864615;28;20056;-62
2023/06/08 05:35:03;;;;;;;23.90;6.60;;;;;;;13.93;83.05;102067.16;20854948;28;20395;-62
2023/06/08 05:45:25;;;;;;;22.27;6.68;;;;;;;14.06;81.75;102058.19;20854651;28;20045;-62
2023/06/08 05:55:47;;;;;;;12.55;5.28;;;;;;;14.16;81.38;102054.44;20859480;28;20048;-62
2023/06/08 06:06:10;;;;;;;14.00;5.70;;;;;;;14.23;82.08;102042.97;20857842;28;20419;-62
2023/06/08 06:16:32;;;;;;;18.38;6.10;;;;;;;14.41;81.78;102052.94;20856336;28;20052;-62
2023/06/08 06:26:54;;;;;;;;;;;;;;;14.64;82.00;102048.00;20861334;28;20064;-62
2023/06/08 06:37:18;;;;;;;17.88;5.25;;;;;;;14.86;79.52;102051.72;20764792;28;20487;-64
2023/06/08 06:47:46;;;;;;;16.23;4.80;;;;;;;14.96;79.41;102066.19;20783203;28;20073;-63
2023/06/08 06:58:09;;;;;;;12.75;5.40;;;;;;;15.24;79.89;102075.81;20778791;28;20141;-62
2023/06/08 07:08:30;;;;;;;16.00;5.35;;;;;;;15.50;78.39;102073.34;20775976;28;20053;-62
2023/06/08 07:18:52;;;;;;;;;;;;;;;15.96;80.60;102060.56;20773936;28;20709;-62
2023/06/08 07:29:13;;;;;;;19.73;6.20;;;;;;;15.98;77.05;102069.19;20807193;28;19931;-62
2023/06/08 07:39:35;;;;;;;;;;;;;;;16.24;77.15;102079.66;20800844;28;20073;-62
2023/06/08 07:49:57;;;;;;;12.23;5.20;;;;;;;16.56;74.84;102066.38;20803312;28;19936;-62
2023/06/08 08:00:19;;;;;;;19.00;5.28;;;;;;;16.76;75.76;102058.69;20767550;28;20848;-62
2023/06/08 08:10:41;;;;;;;17.58;4.75;;;;;;;17.00;73.73;102063.03;20743057;28;20528;-62
2023/06/08 08:21:02;;;;;;;10.77;4.50;;;;;;;17.13;73.31;102049.47;20752844;28;20613;-63
2023/06/08 08:31:24;;;;;;;16.80;4.50;;;;;;;17.31;72.49;102056.63;20750798;28;20049;-63
2023/06/08 08:41:53;;;;;;;13.50;4.45;;;;;;;17.60;70.94;102053.81;20753312;28;20497;-63
2023/06/08 08:52:17;;;;;;;14.60;4.80;;;;;;;17.73;72.43;102044.53;20751063;28;20053;-62
2023/06/08 09:02:38;;;;;;;17.42;4.70;;;;;;;17.93;70.29;102039.31;20750912;28;20068;-62
2023/06/08 09:13:02;;;;;;;14.73;4.65;;;;;;;18.18;71.21;102040.03;20775548;28;20077;-62
2023/06/08 09:23:25;;;;;;;16.15;4.88;;;;;;;18.43;70.51;102026.75;20761699;28;20512;-63
2023/06/08 09:33:47;;;;;;;13.43;4.63;;;;;;;18.70;70.30;102025.53;20745693;28;20049;-63
2023/06/08 09:44:18;;;;;;;16.00;4.70;;;;;;;18.92;68.77;102021.91;20732944;28;20416;-63
2023/06/08 09:54:45;;;;;;;12.52;4.28;;;;;;;19.27;68.36;102028.16;20744558;28;20341;-64
2023/06/08 10:05:10;;;;;;;15.82;4.70;;;;;;;19.41;66.75;102019.66;20744427;28;20053;-64
2023/06/08 10:15:32;;;;;;;11.23;4.65;;;;;;;19.83;67.23;102025.47;20745410;28;20057;-64
2023/06/08 10:25:55;;;;;;;12.90;4.05;;;;;;;20.13;67.32;102005.53;20731590;28;20050;-63
2023/06/08 10:36:17;;;;;;;9.80;3.95;;;;;;;20.40;66.28;101988.38;20743414;28;20049;-63
2023/06/08 10:46:42;;;;;;;8.82;3.63;;;;;;;20.71;63.04;101983.19;20741406;28;20041;-64
2023/06/08 10:57:05;;;;;;;9.43;3.92;;;;;;;21.01;64.06;101978.06;20741351;28;20119;-63
2023/06/08 11:07:37;;;;;;;10.95;3.78;;;;;;;21.24;64.02;101975.03;20740134;28;20513;-63
2023/06/08 11:17:58;;;;;;;11.43;3.78;;;;;;;21.38;62.17;101964.56;20753371;28;20515;-63
2023/06/08 11:28:21;;;;;;;11.88;3.70;;;;;;;21.66;63.14;101955.94;20728024;28;20046;-63
2023/06/08 11:38:43;;;;;;;12.57;3.75;;;;;;;21.75;62.32;101958.03;20753739;28;20179;-63
2023/06/08 11:49:09;;;;;;;7.90;3.30;;;;;;;21.95;60.87;101947.19;20726544;28;20045;-64
2023/06/08 11:59:36;;;;;;;10.88;3.45;;;;;;;21.95;59.79;101948.06;20757519;28;20481;-63
2023/06/08 12:09:59;;;;;;;9.00;3.25;;;;;;;21.80;60.86;101953.38;20754426;28;20045;-64
2023/06/08 12:20:21;;;;;;;9.43;4.00;;;;;;;21.35;62.51;101942.81;20788268;28;20424;-63
2023/06/08 12:30:42;;;;;;;14.02;4.10;;;;;;;21.19;63.77;101931.47;20753049;28;20041;-63
2023/06/08 12:41:04;;;;;;;11.50;3.55;;;;;;;21.14;62.81;101936.13;20738498;28;20386;-63
2023/06/08 12:51:25;;;;;;;11.07;3.72;;;;;;;21.06;62.60;101919.91;20738019;28;20448;-63
2023/06/08 13:01:47;;;;;;;10.32;3.75;;;;;;;21.06;62.59;101901.50;20773107;28;20046;-62
2023/06/08 13:12:09;;;;;;;9.73;3.22;;;;;;;21.04;62.76;101906.84;20730733;28;20046;-64
2023/06/08 13:22:31;;;;;;;7.72;3.40;;;;;;;21.06;63.66;101893.59;20763643;28;20049;-64
2023/06/08 13:32:53;;;;;;;8.98;3.25;;;;;;;21.02;61.68;101904.28;20744151;28;20064;-64
2023/06/08 13:43:15;;;;;;;9.90;3.00;;;;;;;21.00;62.69;101892.16;20774370;28;20045;-64
2023/06/08 13:53:36;;;;;;;13.15;3.15;;;;;;;21.02;64.45;101877.94;20729509;28;20045;-64
2023/06/08 14:03:58;;;;;;;13.20;3.63;;;;;;;20.98;64.83;101871.16;20746663;28;20412;-64
2023/06/08 14:14:20;;;;;;;12.50;3.20;;;;;;;21.00;64.08;101863.19;20743735;28;20160;-63
2023/06/08 14:24:42;;;;;;;9.27;3.40;;;;;;;20.96;63.26;101862.50;20749022;28;20566;-63
2023/06/08 14:35:04;;;;;;;13.40;3.25;;;;;;;20.93;61.32;101852.13;20745712;28;20058;-63
2023/06/08 14:45:26;;;;;;;6.45;3.03;;;;;;;20.86;60.07;101850.78;20747926;28;20053;-63
2023/06/08 14:55:48;;;;;;;8.15;2.92;;;;;;;20.74;61.53;101840.09;20734321;28;20095;-63
2023/06/08 15:06:10;;;;;;;7.25;2.65;;;;;;;20.66;62.49;101842.28;20744336;28;20060;-62
2023/06/08 15:16:31;;;;;;;10.23;3.45;;;;;;;20.73;62.09;101838.41;20744429;28;20049;-63
2023/06/08 15:26:53;;;;;;;10.68;3.15;;;;;;;20.77;63.96;101818.84;20733224;28;21613;-63
2023/06/08 15:37:25;;;;;;;13.52;3.40;;;;;;;20.80;63.22;101819.53;20789308;28;20056;-62
2023/06/08 15:47:47;;;;;;;11.52;2.92;;;;;;;20.70;63.91;101812.25;20742035;28;20053;-63
2023/06/08 15:58:12;;;;;;;9.85;3.22;;;;;;;20.77;64.26;101819.72;20753806;28;20364;-63
2023/06/08 16:08:34;;;;;;;14.98;3.50;;;;;;;21.08;63.74;101815.38;20754017;28;20056;-63
2023/06/08 16:18:57;;;;;;;11.48;3.90;;;;;;;21.18;60.31;101813.91;20752495;28;20049;-62
2023/06/08 16:29:20;;;;;;;13.43;3.17;;;;;;;21.49;60.94;101819.06;20762426;28;20057;-63
2023/06/08 16:39:41;;;;;;;11.27;3.38;;;;;;;21.69;61.61;101816.06;20764349;28;20231;-61
2023/06/08 16:50:04;;;;;;;11.05;3.22;;;;;;;21.68;61.93;101795.94;20749980;28;20049;-62
2023/06/08 17:00:27;;;;;;;9.05;3.50;;;;;;;21.51;62.54;101806.66;20754683;28;20049;-62
2023/06/08 17:10:51;;;;;;;12.35;3.47;;;;;;;21.30;63.68;101792.97;20742095;28;20515;-64
2023/06/08 17:21:17;;;;;;;13.77;3.50;;;;;;;21.02;64.74;101785.81;20751589;28;20064;-63
2023/06/08 17:31:39;;;;;;;10.80;3.08;;;;;;;20.53;65.79;101776.38;20746385;28;20049;-63
2023/06/08 17:42:01;;;;;;;9.88;3.28;;;;;;;20.28;66.44;101783.06;20748561;28;20104;-63
2023/06/08 17:52:23;;;;;;;8.50;3.00;;;;;;;20.09;66.82;101770.03;20745103;28;20421;-63
2023/06/08 18:02:45;;;;;;;17.60;3.58;;;;;;;19.76;67.67;101771.88;20757058;28;20053;-62
2023/06/08 18:13:07;;;;;;;10.82;3.10;;;;;;;19.35;68.68;101766.16;20730252;28;20792;-63
2023/06/08 18:23:28;;;;;;;15.65;3.55;;;;;;;19.17;69.54;101771.44;20770243;28;20045;-63
2023/06/08 18:33:53;;;;;;;26.00;3.38;;;;;;;18.97;69.94;101775.06;20742845;28;20045;-63
2023/06/08 18:44:15;;;;;;;17.85;3.40;;;;;;;18.66;70.67;101780.94;20755082;28;20049;-63
2023/06/08 18:54:37;;;;;;;18.35;3.55;;;;;;;18.40;71.38;101811.91;20742408;28;20049;-62
2023/06/08 19:05:04;;;;;;;18.15;4.57;;;;;;;18.37;71.61;101805.03;20750055;28;20052;-63
2023/06/08 19:15:25;;;;;;;15.25;3.85;;;;;;;18.17;72.50;101825.22;20759398;28;20136;-62
2023/06/08 19:25:47;;;;;;;16.98;4.03;;;;;;;17.98;73.29;101820.81;20760116;28;20061;-64
2023/06/08 19:36:13;;;;;;;18.80;4.80;;;;;;;17.79;74.45;101840.03;20761795;28;20050;-62
2023/06/08 19:46:37;;;;;;;16.58;3.90;;;;;;;17.69;74.74;101846.59;20755766;28;20057;-63
2023/06/08 19:56:59;;;;;;;21.23;4.32;;;;;;;17.42;75.95;101845.09;20784528;28;20060;-63
2023/06/08 20:07:21;;;;;;;22.40;4.70;;;;;;;17.30;76.85;101862.16;20755349;28;20056;-63
2023/06/08 20:17:42;;;;;;;21.10;4.80;;;;;;;17.06;77.83;101853.56;20754258;28;20050;-63
2023/06/08 20:28:04;;;;;;;20.83;4.32;;;;;;;16.97;78.28;101867.00;20757212;28;20053;-63
2023/06/08 20:38:26;;;;;;;17.83;4.38;;;;;;;16.93;78.44;101872.41;20765163;28;20049;-63
2023/06/08 20:48:52;;;;;;;14.70;4.57;;;;;;;16.80;78.69;101872.03;20765803;28;20530;-63
2023/06/08 20:59:13;;;;;;;12.30;3.63;;;;;;;16.78;78.93;101873.84;20752218;28;20058;-63
2023/06/08 21:09:35;;;;;;;18.63;4.45;;;;;;;16.65;80.22;101885.69;20751004;28;21846;-63
2023/06/08 21:19:56;;;;;;;17.55;4.32;;;;;;;16.60;80.11;101869.34;20736848;28;20621;-63
2023/06/08 21:30:19;;;;;;;16.70;4.72;;;;;;;16.48;80.22;101869.78;20738986;28;20516;-63
2023/06/08 21:40:40;;;;;;;18.20;4.10;;;;;;;16.30;81.96;101856.53;20779569;28;20050;-63
2023/06/08 21:51:02;;;;;;;21.55;4.32;;;;;;;16.31;81.66;101864.31;20745804;28;20385;-63
2023/06/08 22:01:24;;;;;;;17.23;4.53;;;;;;;16.19;82.08;101866.53;20744922;28;21476;-63
2023/06/08 22:11:48;;;;;;;13.48;4.32;;;;;;;16.18;81.91;101870.91;20745641;28;20065;-63
2023/06/08 22:22:10;;;;;;;14.18;4.40;;;;;;;16.17;81.94;101874.41;20744234;28;20053;-63
2023/06/08 22:32:32;;;;;;;15.60;3.95;;;;;;;16.13;81.79;101847.53;20743805;28;20056;-63
2023/06/08 22:42:53;;;;;;;12.07;4.13;;;;;;;16.06;81.99;101860.88;20742710;28;20152;-63
2023/06/08 22:53:21;;;;;;;15.43;4.03;;;;;;;15.95;81.75;101857.84;20741175;28;20054;-63
2023/06/08 23:03:43;;;;;;;16.00;4.38;;;;;;;15.97;81.31;101856.00;20743208;28;20045;-63
2023/06/08 23:14:05;;;;;;;15.80;4.20;;;;;;;15.91;82.26;101866.66;20741780;28;20056;-63
2023/06/08 23:24:27;;;;;;;10.95;4.03;;;;;;;15.89;80.76;101868.47;20768490;28;20057;-63
2023/06/08 23:34:50;;;;;;;13.50;4.20;;;;;;;15.86;81.21;101853.75;20726245;28;20050;-63
2023/06/08 23:45:12;;;;;;;12.27;4.50;;;;;;;15.82;82.08;101851.34;20766627;28;20046;-63
2023/06/08 23:55:33;;;;;;;16.65;4.53;;;;;;;15.73;82.35;101846.44;20753279;28;20072;-63
